createdAt,value
2023-09-13T00:00:34.595Z,100210.41
2023-09-13T00:03:37.184Z,100209.69
2023-09-13T00:06:39.301Z,100208.31
2023-09-13T00:09:42.590Z,100220.78
2023-09-13T00:12:44.546Z,100211.06
2023-09-13T00:15:46.822Z,100209.44
2023-09-13T00:18:48.697Z,100213.19
2023-09-13T00:21:50.753Z,100219.75
2023-09-13T00:24:52.697Z,100206.81
2023-09-13T00:27:54.610Z,100212.03
2023-09-13T00:30:58.282Z,100208.63
2023-09-13T00:34:00.221Z,100218.56
2023-09-13T00:37:02.160Z,100205.38
2023-09-13T00:40:06.193Z,100208.22
2023-09-13T00:43:08.112Z,100206.81
2023-09-13T00:46:10.477Z,100211.38
2023-09-13T00:49:12.574Z,100203.47
2023-09-13T00:52:15.247Z,100204.53
2023-09-13T00:55:20.219Z,100212.63
2023-09-13T00:58:23.147Z,100200.53
2023-09-13T01:01:25.320Z,100203.00
2023-09-13T01:04:27.521Z,100198.09
2023-09-13T01:07:30.287Z,100197.19
2023-09-13T01:10:32.153Z,100192.28
2023-09-13T01:13:34.020Z,100207.22
2023-09-13T01:16:57.956Z,100195.78
2023-09-13T01:20:11.114Z,100198.75
2023-09-13T01:23:37.099Z,100200.00
2023-09-13T01:26:53.776Z,100192.94
2023-09-13T01:29:57.803Z,100189.63
2023-09-13T01:32:59.826Z,100204.63
2023-09-13T01:36:01.809Z,100194.06
2023-09-13T01:39:06.081Z,100201.97
2023-09-13T01:42:11.383Z,100202.16
2023-09-13T01:45:15.569Z,100188.06
2023-09-13T01:48:19.397Z,100186.66
2023-09-13T01:51:21.499Z,100201.78
2023-09-13T01:54:23.323Z,100201.91
2023-09-13T01:57:25.216Z,100207.34
2023-09-13T02:00:27.398Z,100201.31
2023-09-13T02:03:29.341Z,100206.44
2023-09-13T02:06:31.812Z,100205.59
2023-09-13T02:09:33.803Z,100205.69
2023-09-13T02:12:35.659Z,100193.50
2023-09-13T02:15:41.400Z,100210.38
2023-09-13T02:18:43.380Z,100179.69
2023-09-13T02:21:46.941Z,100212.47
2023-09-13T02:24:48.959Z,100198.34
2023-09-13T02:27:50.988Z,100192.72
2023-09-13T02:30:53.095Z,100204.06
2023-09-13T02:33:55.714Z,100208.72
2023-09-13T02:36:57.807Z,100207.00
2023-09-13T02:39:59.823Z,100173.47
2023-09-13T02:43:01.842Z,100197.56
2023-09-13T02:46:03.964Z,100185.81
2023-09-13T02:49:06.031Z,100208.22
2023-09-13T02:52:07.946Z,100204.72
2023-09-13T02:55:10.083Z,100210.09
2023-09-13T02:58:12.414Z,100119.22
2023-09-13T03:01:14.690Z,100210.09
2023-09-13T03:04:19.135Z,100223.44
2023-09-13T03:07:23.732Z,100215.63
2023-09-13T03:10:27.906Z,100213.22
2023-09-13T03:13:29.770Z,100216.84
2023-09-13T03:16:31.889Z,100216.19
2023-09-13T03:19:33.759Z,100216.28
2023-09-13T03:22:35.717Z,100215.47
2023-09-13T03:25:37.764Z,100214.63
2023-09-13T03:28:39.753Z,100194.81
2023-09-13T03:31:42.175Z,100205.97
2023-09-13T03:34:48.487Z,100207.56
2023-09-13T03:37:50.444Z,100211.97
2023-09-13T03:40:52.501Z,100202.63
2023-09-13T03:43:54.952Z,100220.13
2023-09-13T03:46:57.513Z,100203.56
2023-09-13T03:50:00.640Z,100209.66
2023-09-13T03:53:02.667Z,100213.22
2023-09-13T03:56:06.055Z,100207.97
2023-09-13T03:59:08.680Z,100208.81
2023-09-13T04:02:11.146Z,100214.81
2023-09-13T04:05:13.565Z,100218.22
2023-09-13T04:08:15.692Z,100217.31
2023-09-13T04:11:17.560Z,100212.81
2023-09-13T04:14:19.400Z,100218.06
2023-09-13T04:17:24.337Z,100214.63
2023-09-13T04:20:26.508Z,100218.22
2023-09-13T04:23:29.933Z,100219.28
2023-09-13T04:26:32.957Z,100220.63
2023-09-13T04:29:35.038Z,100217.22
2023-09-13T04:32:37.191Z,100222.94
2023-09-13T04:35:39.211Z,100220.28
2023-09-13T04:38:41.120Z,100214.94
2023-09-13T04:41:43.361Z,100172.75
2023-09-13T04:44:46.445Z,100224.22
2023-09-13T04:47:49.153Z,100216.03
2023-09-13T04:50:51.072Z,100221.94
2023-09-13T04:53:53.271Z,100219.97
2023-09-13T04:56:55.211Z,100218.72
2023-09-13T04:59:57.177Z,100209.78
2023-09-13T05:02:59.235Z,100212.94
2023-09-13T05:06:01.158Z,100223.34
2023-09-13T05:09:03.828Z,100208.84
2023-09-13T05:12:06.179Z,100219.13
2023-09-13T05:15:08.524Z,100213.22
2023-09-13T05:18:10.484Z,100218.44
2023-09-13T05:21:12.498Z,100215.50
2023-09-13T05:24:14.519Z,100225.41
2023-09-13T05:27:16.326Z,100233.78
2023-09-13T05:30:18.215Z,100231.69
2023-09-13T05:33:20.066Z,100227.75
2023-09-13T05:36:22.175Z,100224.53
2023-09-13T05:39:24.267Z,100189.19
2023-09-13T05:42:26.259Z,100225.91
2023-09-13T05:45:29.325Z,100139.06
2023-09-13T05:48:31.443Z,100231.81
2023-09-13T05:51:33.269Z,100238.28
2023-09-13T05:54:35.170Z,100230.03
2023-09-13T05:57:36.964Z,100244.50
2023-09-13T06:00:38.968Z,100218.19
2023-09-13T06:03:41.202Z,100227.50
2023-09-13T06:06:43.502Z,100186.84
2023-09-13T06:09:45.374Z,100239.03
2023-09-13T06:12:47.277Z,100236.91
2023-09-13T06:15:49.176Z,100236.00
2023-09-13T06:18:51.567Z,100195.25
2023-09-13T06:21:53.862Z,100235.72
2023-09-13T06:24:55.784Z,100243.22
2023-09-13T06:27:57.861Z,100234.56
2023-09-13T06:31:04.601Z,100248.13
2023-09-13T06:34:20.546Z,100249.19
2023-09-13T06:37:27.479Z,100243.84
2023-09-13T06:40:35.501Z,100247.94
2023-09-13T06:43:47.357Z,100244.06
2023-09-13T06:47:03.950Z,100238.03
2023-09-13T06:50:07.098Z,100248.00
2023-09-13T06:56:17.732Z,100243.34
2023-09-13T06:59:23.294Z,100224.78
2023-09-13T07:02:32.982Z,100249.00
2023-09-13T07:05:35.926Z,100248.94
2023-09-13T07:08:37.844Z,100252.81
2023-09-13T07:11:39.847Z,100253.59
2023-09-13T07:14:41.726Z,100250.41
2023-09-13T07:17:44.186Z,100244.06
2023-09-13T07:20:46.599Z,100247.38
2023-09-13T07:23:48.623Z,100252.41
2023-09-13T07:26:50.520Z,100264.16
2023-09-13T07:29:52.483Z,100257.75
2023-09-13T07:32:54.630Z,100247.63
2023-09-13T07:35:56.567Z,100255.91
2023-09-13T07:39:01.391Z,100256.34
2023-09-13T07:42:04.794Z,100246.63
2023-09-13T07:45:08.148Z,100244.56
2023-09-13T07:48:10.567Z,100253.16
2023-09-13T07:51:12.464Z,100260.31
2023-09-13T07:54:14.637Z,100229.66
2023-09-13T07:57:16.554Z,100260.91
2023-09-13T08:00:18.471Z,100266.28
2023-09-13T08:03:20.510Z,100264.97
2023-09-13T08:06:23.738Z,100262.25
2023-09-13T08:09:25.584Z,100275.28
2023-09-13T08:12:27.474Z,100231.75
2023-09-13T08:15:43.257Z,100265.97
2023-09-13T08:18:49.208Z,100261.81
2023-09-13T08:21:51.444Z,100275.41
2023-09-13T08:24:53.260Z,100244.97
2023-09-13T08:27:55.114Z,100281.56
2023-09-13T08:30:57.001Z,100252.44
2023-09-13T08:33:58.966Z,100267.06
2023-09-13T08:37:00.854Z,100261.25
2023-09-13T08:40:02.636Z,100218.50
2023-09-13T08:43:04.911Z,100263.28
2023-09-13T08:46:08.912Z,100259.84
2023-09-13T08:49:11.089Z,100247.22
2023-09-13T08:52:13.273Z,100255.13
2023-09-13T08:55:16.429Z,100255.56
2023-09-13T08:58:20.177Z,100258.09
2023-09-13T09:01:26.910Z,100211.53
2023-09-13T09:04:29.231Z,100251.56
2023-09-13T09:07:31.799Z,100259.69
2023-09-13T09:10:34.034Z,100247.66
2023-09-13T09:13:40.085Z,100240.00
2023-09-13T09:16:44.888Z,100249.19
2023-09-13T09:19:46.869Z,100243.47
2023-09-13T09:22:48.924Z,100240.94
2023-09-13T09:25:51.638Z,100233.47
2023-09-13T09:28:55.578Z,100252.03
2023-09-13T09:31:59.912Z,100226.31
2023-09-13T09:35:01.964Z,100240.78
2023-09-13T09:38:07.976Z,100233.13
2023-09-13T09:41:09.869Z,100230.44
2023-09-13T09:44:11.934Z,100244.03
2023-09-13T09:47:18.005Z,100234.19
2023-09-13T09:50:20.178Z,100235.91
2023-09-13T09:53:26.001Z,100231.81
2023-09-13T09:56:28.170Z,100214.03
2023-09-13T09:59:30.988Z,100242.53
2023-09-13T10:02:33.211Z,100230.13
2023-09-13T10:05:51.506Z,100218.28
2023-09-13T10:08:53.712Z,100226.25
2023-09-13T10:12:02.055Z,100218.28
2023-09-13T10:15:05.238Z,100218.94
2023-09-13T10:18:08.367Z,100216.53
2023-09-13T10:21:11.153Z,100112.44
2023-09-13T10:24:17.277Z,100209.78
2023-09-13T10:27:20.622Z,100181.41
2023-09-13T10:30:26.435Z,100202.13
2023-09-13T10:33:33.174Z,100213.84
2023-09-13T10:36:48.720Z,100208.06
2023-09-13T10:40:00.999Z,100209.06
2023-09-13T10:43:03.780Z,100199.41
2023-09-13T10:46:06.044Z,100207.22
2023-09-13T10:49:08.423Z,100201.63
2023-09-13T10:52:10.815Z,100211.59
2023-09-13T10:55:14.446Z,100213.97
2023-09-13T10:58:21.952Z,100217.53
2023-09-13T11:01:25.901Z,100202.56
2023-09-13T11:04:31.285Z,100193.22
2023-09-13T11:07:33.892Z,100189.97
2023-09-13T11:10:35.796Z,100206.63
2023-09-13T11:13:38.175Z,100202.59
2023-09-13T11:16:41.422Z,100202.25
2023-09-13T11:19:44.794Z,100200.53
2023-09-13T11:23:02.032Z,100203.44
2023-09-13T11:26:08.606Z,100182.19
2023-09-13T11:29:27.103Z,100184.69
2023-09-13T11:32:32.201Z,100190.34
2023-09-13T11:35:35.478Z,100139.16
2023-09-13T11:38:37.897Z,100180.34
2023-09-13T11:45:01.738Z,100131.53
2023-09-13T11:48:07.070Z,100169.50
2023-09-13T11:51:21.343Z,100169.84
2023-09-13T11:54:26.078Z,100165.25
2023-09-13T11:57:57.264Z,100159.78
2023-09-13T12:01:05.253Z,100153.97
2023-09-13T12:04:35.343Z,100157.34
2023-09-13T12:07:32.704Z,100155.69
2023-09-13T12:10:41.593Z,100150.16
2023-09-13T12:16:56.416Z,100143.72
2023-09-13T12:19:58.375Z,100139.81
2023-09-13T12:23:02.293Z,100137.22
2023-09-13T12:26:07.276Z,100138.22
2023-09-13T12:29:09.526Z,100132.44
2023-09-13T12:32:11.584Z,100126.16
2023-09-13T12:35:14.348Z,100138.34
2023-09-13T12:38:18.452Z,100126.47
2023-09-13T12:41:22.088Z,100141.91
2023-09-13T12:44:24.199Z,100065.34
2023-09-13T12:47:26.212Z,100136.75
2023-09-13T12:50:33.857Z,100127.25
2023-09-13T12:53:37.605Z,100126.06
2023-09-13T12:56:40.711Z,100132.84
2023-09-13T12:59:43.052Z,100127.41
2023-09-13T13:02:49.263Z,100123.00
2023-09-13T13:05:51.962Z,100124.47
2023-09-13T13:09:05.657Z,100117.97
2023-09-13T13:12:15.797Z,100119.19
2023-09-13T13:15:17.819Z,100076.69
2023-09-13T13:18:19.753Z,100115.53
2023-09-13T13:21:38.656Z,100101.34
2023-09-13T13:24:43.191Z,100110.00
2023-09-13T13:27:45.089Z,100117.13
2023-09-13T13:30:47.329Z,100096.09
2023-09-13T13:33:49.572Z,100100.41
2023-09-13T13:36:51.430Z,100094.09
2023-09-13T13:39:53.444Z,100096.44
2023-09-13T13:42:55.358Z,100094.84
2023-09-13T13:45:57.716Z,100093.06
2023-09-13T13:48:59.716Z,100090.41
2023-09-13T13:52:01.594Z,100084.38
2023-09-13T13:55:03.906Z,100063.03
2023-09-13T13:58:06.612Z,100075.34
2023-09-13T14:01:08.507Z,100082.56
2023-09-13T14:04:11.480Z,100078.81
2023-09-13T14:07:13.390Z,100075.19
2023-09-13T14:10:15.233Z,100078.59
2023-09-13T14:13:18.922Z,100076.41
2023-09-13T14:16:20.883Z,100073.16
2023-09-13T14:19:22.797Z,100058.75
2023-09-13T14:22:24.727Z,100070.91
2023-09-13T14:25:27.309Z,100060.69
2023-09-13T14:28:32.629Z,100058.97
2023-09-13T14:31:38.546Z,100046.81
2023-09-13T14:34:43.415Z,100047.50
2023-09-13T14:37:45.701Z,100046.75
2023-09-13T14:40:47.641Z,100052.69
2023-09-13T14:43:49.448Z,100044.28
2023-09-13T14:46:53.804Z,100044.31
2023-09-13T14:49:56.036Z,100037.63
2023-09-13T14:52:58.015Z,100042.53
2023-09-13T14:56:00.195Z,100033.22
2023-09-13T14:59:02.086Z,100026.13
2023-09-13T15:02:05.093Z,100037.97
2023-09-13T15:05:08.297Z,100042.44
2023-09-13T15:08:10.199Z,100033.09
2023-09-13T15:11:12.093Z,100038.06
2023-09-13T15:14:14.193Z,100035.00
2023-09-13T15:17:16.266Z,100035.22
2023-09-13T15:20:18.107Z,100026.09
2023-09-13T15:23:19.976Z,100031.38
2023-09-13T15:26:22.817Z,100006.78
2023-09-13T15:29:24.663Z,99988.34
2023-09-13T15:32:26.528Z,100016.63
2023-09-13T15:35:28.745Z,100010.38
2023-09-13T15:38:30.990Z,100016.47
2023-09-13T15:41:33.146Z,100025.28
2023-09-13T15:44:35.080Z,100008.69
2023-09-13T15:47:38.699Z,100014.13
2023-09-13T15:50:41.153Z,100003.78
2023-09-13T15:53:43.313Z,99976.16
2023-09-13T15:56:45.367Z,100004.47
2023-09-13T15:59:47.481Z,99990.59
2023-09-13T16:02:49.459Z,99995.47
2023-09-13T16:05:52.100Z,99958.56
2023-09-13T16:08:53.979Z,99989.69
2023-09-13T16:11:55.936Z,99993.44
2023-09-13T16:14:58.451Z,99992.75
2023-09-13T16:18:00.413Z,100002.06
2023-09-13T16:21:02.442Z,99980.72
2023-09-13T16:24:04.648Z,100006.97
2023-09-13T16:27:07.290Z,99991.66
2023-09-13T16:30:10.163Z,100004.84
2023-09-13T16:33:12.127Z,99884.75
2023-09-13T16:36:14.152Z,99991.84
2023-09-13T16:39:17.376Z,99998.53
2023-09-13T16:42:19.395Z,99997.75
2023-09-13T16:45:23.606Z,99998.34
2023-09-13T16:48:34.407Z,100004.16
2023-09-13T16:51:37.059Z,100005.28
2023-09-13T16:54:40.380Z,100015.00
2023-09-13T16:57:42.452Z,100012.84
2023-09-13T17:00:44.428Z,100008.69
2023-09-13T17:03:46.869Z,99963.81
2023-09-13T17:06:51.189Z,100016.19
2023-09-13T17:09:53.338Z,100007.31
2023-09-13T17:12:58.165Z,100008.78
2023-09-13T17:16:00.066Z,99998.47
2023-09-13T17:19:02.195Z,100008.72
2023-09-13T17:22:04.420Z,100000.00
2023-09-13T17:25:06.571Z,100011.09
2023-09-13T17:28:08.537Z,100009.31
2023-09-13T17:31:11.228Z,100019.28
2023-09-13T17:34:13.290Z,100012.56
2023-09-13T17:37:15.278Z,100022.56
2023-09-13T17:40:17.192Z,100020.84
2023-09-13T17:43:19.151Z,100020.88
2023-09-13T17:46:21.091Z,100009.72
2023-09-13T17:49:23.089Z,100017.25
2023-09-13T17:52:25.190Z,99976.44
2023-09-13T17:55:27.084Z,100023.38
2023-09-13T17:58:29.034Z,100005.06
2023-09-13T18:01:30.901Z,100014.59
2023-09-13T18:04:32.878Z,100019.69
2023-09-13T18:07:38.733Z,100027.38
2023-09-13T18:10:41.651Z,99987.94
2023-09-13T18:13:45.626Z,100018.84
2023-09-13T18:16:48.204Z,100012.59
2023-09-13T18:19:50.572Z,100027.22
2023-09-13T18:22:52.443Z,100039.50
2023-09-13T18:25:54.287Z,100021.34
2023-09-13T18:28:56.259Z,100025.13
2023-09-13T18:31:59.792Z,100030.63
2023-09-13T18:35:01.722Z,100041.66
2023-09-13T18:38:04.378Z,100039.41
2023-09-13T18:41:07.167Z,99926.16
2023-09-13T18:44:11.307Z,100049.28
2023-09-13T18:47:13.437Z,100045.72
2023-09-13T18:50:15.420Z,100019.50
2023-09-13T18:53:17.291Z,100053.69
2023-09-13T18:56:19.176Z,100030.34
2023-09-13T18:59:24.190Z,100054.72
2023-09-13T19:02:27.228Z,100034.28
2023-09-13T19:05:29.138Z,100035.53
2023-09-13T19:08:31.847Z,100047.97
2023-09-13T19:11:35.796Z,100052.19
2023-09-13T19:14:37.791Z,100054.44
2023-09-13T19:17:39.708Z,100045.03
2023-09-13T19:20:46.663Z,100043.75
2023-09-13T19:23:49.505Z,100028.66
2023-09-13T19:26:51.313Z,100026.66
2023-09-13T19:29:54.107Z,100030.44
2023-09-13T19:32:56.113Z,100036.94
2023-09-13T19:36:02.858Z,100036.31
2023-09-13T19:39:07.329Z,100031.75
2023-09-13T19:42:10.144Z,100019.69
2023-09-13T19:45:12.129Z,100029.81
2023-09-13T19:48:14.057Z,100031.31
2023-09-13T19:51:16.209Z,100031.56
2023-09-13T19:54:18.013Z,100032.91
2023-09-13T19:57:19.895Z,100031.84
2023-09-13T20:00:24.681Z,100037.22
2023-09-13T20:03:28.106Z,100036.03
2023-09-13T20:06:32.251Z,100034.53
2023-09-13T20:09:34.306Z,99993.59
2023-09-13T20:12:36.237Z,99930.75
2023-09-13T20:15:38.328Z,100036.13
2023-09-13T20:18:40.426Z,100040.66
2023-09-13T20:21:42.375Z,100040.13
2023-09-13T20:24:44.840Z,100033.56
2023-09-13T20:27:47.004Z,100020.41
2023-09-13T20:30:49.066Z,100033.22
2023-09-13T20:33:51.075Z,100035.16
2023-09-13T20:36:53.145Z,100032.84
2023-09-13T20:39:58.199Z,100032.34
2023-09-13T20:43:00.154Z,99996.25
2023-09-13T20:46:02.221Z,100035.63
2023-09-13T20:49:04.890Z,100000.09
2023-09-13T20:52:07.140Z,100047.44
2023-09-13T20:55:09.707Z,100034.00
2023-09-13T20:58:11.572Z,100008.59
2023-09-13T21:01:13.509Z,100028.88
2023-09-13T21:04:15.544Z,100017.84
2023-09-13T21:07:17.460Z,100041.25
2023-09-13T21:10:19.488Z,100036.13
2023-09-13T21:13:22.305Z,100030.41
2023-09-13T21:16:24.536Z,100043.16
2023-09-13T21:19:26.425Z,100034.13
2023-09-13T21:22:28.367Z,100044.09
2023-09-13T21:25:30.189Z,100026.53
2023-09-13T21:28:32.081Z,100042.59
2023-09-13T21:31:34.013Z,100039.19
2023-09-13T21:34:46.845Z,100043.53
2023-09-13T21:37:57.911Z,100060.44
2023-09-13T21:40:59.797Z,100058.00
2023-09-13T21:44:01.617Z,100060.03
2023-09-13T21:47:03.614Z,100042.31
2023-09-13T21:50:06.094Z,100063.28
2023-09-13T21:53:08.020Z,100054.81
2023-09-13T21:56:09.873Z,100053.88
2023-09-13T21:59:12.520Z,100048.00
2023-09-13T22:02:14.578Z,100044.53
2023-09-13T22:05:23.523Z,100051.56
2023-09-13T22:08:25.744Z,100051.56
2023-09-13T22:11:28.764Z,100056.50
2023-09-13T22:14:31.149Z,100047.56
2023-09-13T22:17:33.029Z,100059.09
2023-09-13T22:20:36.576Z,100060.41
2023-09-13T22:23:38.684Z,100057.75
2023-09-13T22:26:40.622Z,100067.50
2023-09-13T22:29:48.115Z,100060.84
2023-09-13T22:32:50.111Z,100063.97
2023-09-13T22:35:52.095Z,100071.03
2023-09-13T22:39:07.707Z,100054.91
2023-09-13T22:42:12.037Z,100014.06
2023-09-13T22:45:13.964Z,100052.66
2023-09-13T22:48:15.928Z,99996.88
2023-09-13T22:51:18.038Z,100063.13
2023-09-13T22:54:23.504Z,100013.41
2023-09-13T22:57:25.474Z,100052.84
2023-09-13T23:00:27.792Z,100024.53
2023-09-13T23:03:43.721Z,100048.56
2023-09-13T23:06:48.198Z,100069.84
2023-09-13T23:09:50.057Z,100060.22
2023-09-13T23:12:53.894Z,100020.38
2023-09-13T23:16:06.042Z,100047.84
2023-09-13T23:19:09.810Z,100049.56
2023-09-13T23:22:11.716Z,100069.00
2023-09-13T23:25:14.069Z,100052.53
2023-09-13T23:28:15.934Z,100058.63
2023-09-13T23:31:19.330Z,100064.50
2023-09-13T23:34:21.416Z,100058.09
2023-09-13T23:37:23.250Z,100053.16
2023-09-13T23:40:25.162Z,100067.25
2023-09-13T23:43:27.082Z,100056.03
2023-09-13T23:46:28.995Z,100069.19
2023-09-13T23:49:32.408Z,100059.50
2023-09-13T23:52:34.291Z,100064.50
2023-09-13T23:55:36.284Z,100010.84
2023-09-13T23:58:38.150Z,100026.41
